Time;durP1;ratioP1;P1;durP2;ratioP2;P2;SDS_P1;SDS_P2;PMS_P1;PMS_P2;Temp;Humidity;BMP_temperature;BMP_pressure;BME280_temperature;BME280_humidity;BME280_pressure;Samples;Min_cycle;Max_cycle;Signal;HPM_P1;HPM_P2
2021/07/15 00:00:53;;;;;;;20.30;16.92;;;;;;;;;;5046111;28;20479;-72
2021/07/15 00:03:22;;;;;;;16.27;14.70;;;;;;;;;;5046943;28;20109;-72
2021/07/15 00:05:48;;;;;;;16.40;14.80;;;;;;;;;;5044693;28;20096;-72
2021/07/15 00:08:17;;;;;;;16.65;14.55;;;;;;;;;;5039778;28;20096;-72
2021/07/15 00:11:14;;;;;;;19.13;15.52;;;;;;;;;;5032131;28;20112;-73
2021/07/15 00:13:40;;;;;;;22.83;15.77;;;;;;;;;;5033476;28;20044;-72
2021/07/15 00:16:11;;;;;;;18.85;16.02;;;;;;;;;;5063240;28;20450;-72
2021/07/15 00:18:41;;;;;;;25.85;18.88;;;;;;;;;;5065849;28;20535;-72
2021/07/15 00:21:09;;;;;;;29.83;19.70;;;;;;;;;;5033312;28;20029;-72
2021/07/15 00:23:35;;;;;;;25.58;20.33;;;;;;;;;;5058996;28;20025;-72
2021/07/15 00:26:04;;;;;;;29.02;22.02;;;;;;;;;;5067724;28;20107;-72
2021/07/15 00:28:30;;;;;;;29.15;22.60;;;;;;;;;;5063775;28;20365;-72
2021/07/15 00:30:55;;;;;;;25.25;19.23;;;;;;;;;;5054636;28;20041;-72
2021/07/15 00:33:21;;;;;;;21.35;19.05;;;;;;;;;;5051296;28;20025;-72
2021/07/15 00:35:46;;;;;;;19.77;17.70;;;;;;;;;;5068669;28;20024;-72
2021/07/15 00:38:12;;;;;;;29.92;17.27;;;;;;;;;;5074671;28;20024;-72
2021/07/15 00:40:40;;;;;;;31.13;19.30;;;;;;;;;;5073566;28;20104;-72
2021/07/15 00:43:07;;;;;;;23.10;16.98;;;;;;;;;;5062556;28;20043;-73
2021/07/15 00:45:32;;;;;;;31.90;18.23;;;;;;;;;;5063389;28;20032;-73
2021/07/15 00:47:58;;;;;;;27.60;18.85;;;;;;;;;;5063166;28;20033;-72
2021/07/15 00:50:25;;;;;;;21.88;18.02;;;;;;;;;;5060372;28;20052;-72
2021/07/15 00:52:53;;;;;;;23.83;20.15;;;;;;;;;;5062619;28;20028;-71
2021/07/15 00:55:34;;;;;;;27.35;22.25;;;;;;;;;;5072108;28;20028;-72
2021/07/15 00:58:01;;;;;;;27.83;21.17;;;;;;;;;;5067924;28;20032;-72
2021/07/15 01:00:27;;;;;;;28.17;21.48;;;;;;;;;;5054433;28;20549;-72
2021/07/15 01:02:59;;;;;;;29.50;23.15;;;;;;;;;;5069281;28;20028;-72
2021/07/15 01:05:32;;;;;;;28.95;25.08;;;;;;;;;;5059504;28;20532;-72
2021/07/15 01:07:57;;;;;;;35.35;25.83;;;;;;;;;;5048631;28;20379;-72
2021/07/15 01:10:26;;;;;;;30.20;24.83;;;;;;;;;;5064543;28;20044;-72
2021/07/15 01:13:12;;;;;;;36.33;22.83;;;;;;;;;;5062909;28;20024;-72
2021/07/15 01:15:52;;;;;;;33.08;20.35;;;;;;;;;;5070297;28;20044;-72
2021/07/15 01:18:36;;;;;;;30.63;19.95;;;;;;;;;;5056780;28;20056;-72
2021/07/15 01:21:22;;;;;;;29.48;21.15;;;;;;;;;;5069653;28;20387;-72
2021/07/15 01:24:15;;;;;;;25.05;19.63;;;;;;;;;;5021955;28;20041;-72
2021/07/15 01:27:02;;;;;;;25.00;17.90;;;;;;;;;;5061700;28;20365;-72
2021/07/15 01:29:53;;;;;;;28.83;18.95;;;;;;;;;;5070498;28;20097;-72
2021/07/15 01:32:21;;;;;;;30.05;22.67;;;;;;;;;;5055124;28;20070;-72
2021/07/15 01:34:50;;;;;;;32.40;25.52;;;;;;;;;;5057421;28;20051;-72
2021/07/15 01:37:16;;;;;;;34.72;25.58;;;;;;;;;;5071703;28;20036;-72
2021/07/15 01:39:43;;;;;;;35.97;26.15;;;;;;;;;;5062284;28;20021;-72
2021/07/15 01:42:12;;;;;;;29.48;24.02;;;;;;;;;;5055541;28;20028;-72
2021/07/15 01:44:39;;;;;;;33.92;22.40;;;;;;;;;;5067455;28;20029;-72
2021/07/15 01:47:05;;;;;;;27.73;22.13;;;;;;;;;;5060258;28;20020;-72
2021/07/15 01:49:32;;;;;;;27.17;21.58;;;;;;;;;;5054227;28;20538;-72
2021/07/15 01:51:59;;;;;;;30.55;19.58;;;;;;;;;;5059615;28;20063;-72
2021/07/15 01:54:27;;;;;;;32.10;19.25;;;;;;;;;;5061755;28;20037;-72
2021/07/15 01:56:54;;;;;;;36.47;19.58;;;;;;;;;;5071895;28;20024;-72
2021/07/15 01:59:23;;;;;;;31.05;19.48;;;;;;;;;;5056088;28;20028;-72
2021/07/15 02:01:51;;;;;;;47.97;19.42;;;;;;;;;;5065478;28;20071;-72
2021/07/15 02:04:17;;;;;;;40.92;18.58;;;;;;;;;;5065922;28;20033;-72
2021/07/15 02:06:48;;;;;;;35.45;18.25;;;;;;;;;;5054799;28;20033;-72
2021/07/15 02:09:14;;;;;;;36.47;19.10;;;;;;;;;;5054338;28;20028;-72
2021/07/15 02:11:42;;;;;;;26.10;19.35;;;;;;;;;;5063657;28;20036;-72
2021/07/15 02:14:10;;;;;;;27.48;19.23;;;;;;;;;;5051882;28;20037;-72
2021/07/15 02:16:39;;;;;;;29.42;20.95;;;;;;;;;;5034968;28;20396;-72
2021/07/15 02:19:05;;;;;;;26.58;20.60;;;;;;;;;;5035901;28;20063;-72
2021/07/15 02:21:34;;;;;;;23.60;19.85;;;;;;;;;;5048707;28;20040;-72
2021/07/15 02:24:01;;;;;;;25.65;19.92;;;;;;;;;;5051510;28;20112;-72
2021/07/15 02:26:34;;;;;;;26.27;19.23;;;;;;;;;;5033214;28;20509;-72
2021/07/15 02:29:00;;;;;;;25.20;19.77;;;;;;;;;;5034007;28;20079;-72
2021/07/15 02:31:47;;;;;;;23.77;19.20;;;;;;;;;;5048087;28;20040;-72
2021/07/15 02:34:27;;;;;;;31.60;19.73;;;;;;;;;;5052007;28;20074;-72
2021/07/15 02:36:54;;;;;;;23.63;19.17;;;;;;;;;;5040866;28;20065;-72
2021/07/15 02:39:20;;;;;;;23.67;17.90;;;;;;;;;;5047678;28;20075;-72
2021/07/15 02:41:47;;;;;;;20.48;18.20;;;;;;;;;;5052076;28;20465;-72
2021/07/15 02:44:12;;;;;;;23.00;18.00;;;;;;;;;;5045866;28;20075;-72
2021/07/15 02:46:38;;;;;;;24.33;19.25;;;;;;;;;;5032196;28;20052;-72
2021/07/15 02:49:07;;;;;;;22.95;18.88;;;;;;;;;;5037672;28;20023;-73
2021/07/15 02:51:33;;;;;;;21.45;18.40;;;;;;;;;;5044650;28;20017;-72
2021/07/15 02:54:00;;;;;;;26.25;18.75;;;;;;;;;;5033453;28;20064;-72
2021/07/15 02:56:51;;;;;;;25.50;18.02;;;;;;;;;;5031993;28;20037;-72
2021/07/15 02:59:30;;;;;;;29.77;18.17;;;;;;;;;;5042733;28;20025;-72
2021/07/15 03:02:24;;;;;;;26.45;16.77;;;;;;;;;;5031343;28;20032;-72
2021/07/15 03:04:59;;;;;;;21.25;16.05;;;;;;;;;;5042564;28;20040;-72
2021/07/15 03:07:25;;;;;;;24.33;16.38;;;;;;;;;;5051229;28;20024;-72
2021/07/15 03:09:53;;;;;;;22.45;18.10;;;;;;;;;;5051041;28;20025;-72
2021/07/15 03:12:23;;;;;;;24.52;17.05;;;;;;;;;;5050643;28;20035;-72
2021/07/15 03:14:54;;;;;;;25.92;17.77;;;;;;;;;;5049264;28;20067;-72
2021/07/15 03:17:26;;;;;;;27.63;18.23;;;;;;;;;;5041470;28;20029;-73
2021/07/15 03:19:53;;;;;;;27.40;18.95;;;;;;;;;;5030510;28;20025;-72
2021/07/15 03:22:20;;;;;;;31.40;20.33;;;;;;;;;;5043166;28;20367;-72
2021/07/15 03:24:54;;;;;;;27.25;20.70;;;;;;;;;;5049537;28;20542;-72
2021/07/15 03:27:21;;;;;;;29.35;21.42;;;;;;;;;;5049900;28;20047;-72
2021/07/15 03:29:48;;;;;;;27.63;21.70;;;;;;;;;;5049741;28;20031;-72
2021/07/15 03:32:14;;;;;;;28.40;21.00;;;;;;;;;;5049815;28;20037;-72
2021/07/15 03:34:41;;;;;;;27.20;19.27;;;;;;;;;;5031095;28;20094;-72
2021/07/15 03:37:07;;;;;;;31.15;21.63;;;;;;;;;;5029611;28;20100;-72
2021/07/15 03:39:34;;;;;;;25.42;20.70;;;;;;;;;;5029502;28;20033;-72
2021/07/15 03:41:59;;;;;;;29.00;20.90;;;;;;;;;;5030176;28;20029;-72
2021/07/15 03:44:26;;;;;;;26.83;21.50;;;;;;;;;;5027975;28;20029;-72
2021/07/15 03:46:52;;;;;;;28.90;20.77;;;;;;;;;;5050341;28;20025;-72
2021/07/15 03:49:24;;;;;;;24.65;20.20;;;;;;;;;;5045370;28;20025;-72
2021/07/15 03:51:51;;;;;;;24.17;21.58;;;;;;;;;;5030063;28;20030;-72
2021/07/15 03:54:19;;;;;;;26.35;22.63;;;;;;;;;;5030047;28;20021;-72
2021/07/15 03:56:46;;;;;;;26.02;21.90;;;;;;;;;;5030050;28;20028;-73
2021/07/15 03:59:12;;;;;;;30.58;21.75;;;;;;;;;;5030947;28;20021;-73
2021/07/15 04:01:40;;;;;;;24.77;19.45;;;;;;;;;;5030225;28;20025;-72
2021/07/15 04:04:07;;;;;;;22.48;20.08;;;;;;;;;;5029841;28;20507;-72
2021/07/15 04:06:35;;;;;;;28.55;22.52;;;;;;;;;;5030086;28;20025;-72
2021/07/15 04:09:03;;;;;;;31.63;25.15;;;;;;;;;;5033672;28;20040;-72
2021/07/15 04:11:30;;;;;;;35.33;26.50;;;;;;;;;;5053190;28;20017;-72
2021/07/15 04:13:57;;;;;;;30.85;25.85;;;;;;;;;;5035078;28;20046;-72
2021/07/15 04:16:52;;;;;;;30.58;24.90;;;;;;;;;;5040645;28;20031;-73
2021/07/15 04:19:19;;;;;;;25.63;21.75;;;;;;;;;;5053057;28;20020;-72
2021/07/15 04:21:45;;;;;;;24.38;20.85;;;;;;;;;;5053431;28;20028;-72
2021/07/15 04:24:13;;;;;;;24.67;20.63;;;;;;;;;;5053457;28;20512;-72
2021/07/15 04:26:39;;;;;;;27.67;23.30;;;;;;;;;;5053513;28;20025;-72
2021/07/15 04:29:07;;;;;;;25.67;21.08;;;;;;;;;;5052863;28;20029;-72
2021/07/15 04:31:54;;;;;;;25.05;22.35;;;;;;;;;;5052122;28;20029;-72
2021/07/15 04:34:20;;;;;;;25.85;23.23;;;;;;;;;;5053219;28;20286;-72
2021/07/15 04:36:48;;;;;;;27.42;24.48;;;;;;;;;;5052475;28;20468;-72
2021/07/15 04:39:14;;;;;;;28.67;25.67;;;;;;;;;;5043895;28;20071;-72
2021/07/15 04:41:42;;;;;;;26.98;24.17;;;;;;;;;;5051474;28;20112;-72
2021/07/15 04:44:10;;;;;;;27.05;24.15;;;;;;;;;;5050546;28;20045;-72
2021/07/15 04:46:38;;;;;;;26.65;23.67;;;;;;;;;;5046365;28;20036;-72
2021/07/15 04:49:06;;;;;;;26.35;23.02;;;;;;;;;;5049606;28;20025;-72
2021/07/15 04:51:33;;;;;;;26.33;23.65;;;;;;;;;;5051158;28;20365;-72
2021/07/15 04:54:00;;;;;;;24.45;22.00;;;;;;;;;;5053119;28;20109;-72
2021/07/15 04:56:27;;;;;;;24.88;22.27;;;;;;;;;;5045873;28;20112;-72
2021/07/15 04:58:55;;;;;;;22.88;20.60;;;;;;;;;;5042778;28;20040;-71
2021/07/15 05:01:20;;;;;;;22.27;20.08;;;;;;;;;;5035585;28;20076;-71
2021/07/15 05:03:46;;;;;;;20.10;18.02;;;;;;;;;;5014927;28;20029;-71
2021/07/15 05:06:11;;;;;;;19.77;17.83;;;;;;;;;;5042345;28;20524;-71
2021/07/15 05:08:39;;;;;;;20.17;18.25;;;;;;;;;;5048275;28;20025;-71
2021/07/15 05:11:07;;;;;;;20.10;17.90;;;;;;;;;;5049423;28;20021;-72
2021/07/15 05:13:33;;;;;;;18.77;16.92;;;;;;;;;;5033817;28;20021;-72
2021/07/15 05:15:58;;;;;;;19.00;17.20;;;;;;;;;;5056933;28;20020;-72
2021/07/15 05:18:25;;;;;;;16.70;15.15;;;;;;;;;;5064295;28;20373;-71
2021/07/15 05:20:50;;;;;;;17.25;15.55;;;;;;;;;;5052102;28;20472;-71
2021/07/15 05:23:18;;;;;;;15.90;14.40;;;;;;;;;;5057462;28;20040;-72
2021/07/15 05:25:44;;;;;;;15.65;14.02;;;;;;;;;;5062236;28;20532;-72
2021/07/15 05:28:10;;;;;;;15.13;13.45;;;;;;;;;;5058463;28;20025;-72
2021/07/15 05:30:35;;;;;;;13.13;11.77;;;;;;;;;;5063605;28;20040;-72
2021/07/15 05:33:00;;;;;;;13.95;12.52;;;;;;;;;;5043392;28;20025;-71
2021/07/15 05:35:26;;;;;;;16.52;12.70;;;;;;;;;;5062623;28;20389;-72
2021/07/15 05:37:51;;;;;;;13.85;12.45;;;;;;;;;;5058844;28;20058;-72
2021/07/15 05:40:17;;;;;;;14.10;12.70;;;;;;;;;;5068774;28;20116;-72
2021/07/15 05:42:43;;;;;;;12.60;11.52;;;;;;;;;;5055796;28;20104;-72
2021/07/15 05:45:09;;;;;;;12.95;11.85;;;;;;;;;;5066363;28;20052;-72
2021/07/15 05:47:35;;;;;;;12.93;11.52;;;;;;;;;;5061804;28;20034;-72
2021/07/15 05:50:02;;;;;;;13.23;11.93;;;;;;;;;;5058433;28;20033;-72
2021/07/15 05:52:30;;;;;;;13.40;12.07;;;;;;;;;;5062952;28;20032;-72
2021/07/15 05:54:57;;;;;;;13.57;12.27;;;;;;;;;;5070601;28;20052;-72
2021/07/15 05:57:24;;;;;;;12.40;11.13;;;;;;;;;;5071238;28;20288;-72
2021/07/15 05:59:49;;;;;;;12.27;11.18;;;;;;;;;;5072509;28;20033;-73
2021/07/15 06:02:15;;;;;;;12.02;10.82;;;;;;;;;;5055243;28;20480;-72
2021/07/15 06:04:41;;;;;;;11.75;10.50;;;;;;;;;;5068428;28;20048;-72
2021/07/15 06:07:08;;;;;;;11.05;9.90;;;;;;;;;;5051531;28;20029;-72
2021/07/15 06:09:34;;;;;;;11.43;10.23;;;;;;;;;;5051145;28;20434;-72
2021/07/15 06:11:59;;;;;;;11.00;9.90;;;;;;;;;;5082556;28;20107;-72
2021/07/15 06:14:25;;;;;;;10.98;9.88;;;;;;;;;;5062568;28;20097;-72
2021/07/15 06:16:50;;;;;;;10.18;9.18;;;;;;;;;;5046140;28;20497;-72
2021/07/15 06:19:16;;;;;;;10.82;9.43;;;;;;;;;;5050990;28;20025;-72
2021/07/15 06:21:41;;;;;;;9.77;8.88;;;;;;;;;;5037675;28;20036;-72
2021/07/15 06:24:09;;;;;;;9.43;8.55;;;;;;;;;;5035843;28;20417;-72
2021/07/15 06:26:34;;;;;;;9.40;8.40;;;;;;;;;;5031593;28;20363;-72
2021/07/15 06:29:00;;;;;;;13.13;9.45;;;;;;;;;;5039433;28;20140;-73
2021/07/15 06:31:26;;;;;;;9.50;8.55;;;;;;;;;;5042710;28;20025;-72
2021/07/15 06:33:51;;;;;;;10.18;8.93;;;;;;;;;;5046028;28;20122;-72
2021/07/15 06:36:17;;;;;;;10.68;8.57;;;;;;;;;;5032167;28;20033;-73
2021/07/15 06:38:42;;;;;;;10.07;9.27;;;;;;;;;;5031883;28;20032;-72
2021/07/15 06:41:09;;;;;;;12.00;9.15;;;;;;;;;;5045127;28;20019;-72
2021/07/15 06:43:41;;;;;;;9.82;8.90;;;;;;;;;;5051802;28;20057;-73
2021/07/15 06:46:07;;;;;;;11.27;8.70;;;;;;;;;;5031710;28;20362;-72
2021/07/15 06:48:32;;;;;;;9.18;8.38;;;;;;;;;;5031445;28;20030;-72
2021/07/15 06:50:59;;;;;;;9.02;8.23;;;;;;;;;;5043756;28;20421;-70
2021/07/15 06:53:25;;;;;;;10.02;8.10;;;;;;;;;;5051151;28;20024;-72
2021/07/15 06:55:51;;;;;;;9.85;8.25;;;;;;;;;;5050445;28;20029;-72
2021/07/15 06:58:18;;;;;;;9.38;8.57;;;;;;;;;;5036231;28;20037;-73
2021/07/15 07:00:44;;;;;;;9.35;8.27;;;;;;;;;;5033773;28;20362;-73
2021/07/15 07:03:27;;;;;;;8.95;8.00;;;;;;;;;;5053218;28;20079;-72
2021/07/15 07:05:53;;;;;;;8.73;7.93;;;;;;;;;;5050931;28;20025;-73
2021/07/15 07:08:20;;;;;;;8.48;7.70;;;;;;;;;;5051677;28;20047;-72
2021/07/15 07:10:46;;;;;;;9.52;8.35;;;;;;;;;;5035110;28;20485;-73
2021/07/15 07:13:12;;;;;;;9.27;8.25;;;;;;;;;;5043555;28;20113;-74
2021/07/15 07:15:38;;;;;;;8.60;7.75;;;;;;;;;;5044819;28;20045;-72
2021/07/15 07:18:05;;;;;;;8.73;7.93;;;;;;;;;;5050661;28;20037;-75
2021/07/15 07:20:30;;;;;;;8.75;7.95;;;;;;;;;;5036598;28;20072;-70
2021/07/15 07:22:58;;;;;;;9.43;8.05;;;;;;;;;;5042877;28;20032;-72
2021/07/15 07:25:23;;;;;;;8.63;7.60;;;;;;;;;;5046869;28;20051;-72
2021/07/15 07:27:49;;;;;;;10.45;7.75;;;;;;;;;;5045627;28;20060;-70
2021/07/15 07:30:16;;;;;;;8.35;7.53;;;;;;;;;;5046210;28;20025;-72
2021/07/15 07:32:44;;;;;;;8.48;7.60;;;;;;;;;;5048827;28;20035;-72
2021/07/15 07:35:11;;;;;;;8.55;7.75;;;;;;;;;;5051150;28;20117;-71
2021/07/15 07:37:37;;;;;;;8.73;7.93;;;;;;;;;;5052025;28;20028;-70
2021/07/15 07:40:06;;;;;;;9.00;8.20;;;;;;;;;;5042208;28;20159;-69
2021/07/15 07:42:32;;;;;;;9.30;8.50;;;;;;;;;;5037941;28;20025;-72
2021/07/15 07:44:58;;;;;;;8.98;7.93;;;;;;;;;;5043015;28;20024;-72
2021/07/15 07:47:23;;;;;;;9.68;8.85;;;;;;;;;;5050867;28;20395;-71
2021/07/15 07:49:49;;;;;;;9.13;8.32;;;;;;;;;;5027932;28;20028;-73
2021/07/15 07:52:14;;;;;;;8.80;7.95;;;;;;;;;;5024892;28;20087;-76
2021/07/15 07:54:40;;;;;;;9.10;8.20;;;;;;;;;;5048655;28;20051;-73
2021/07/15 07:57:06;;;;;;;9.60;8.55;;;;;;;;;;5050680;28;20021;-72
2021/07/15 07:59:31;;;;;;;9.25;8.45;;;;;;;;;;5038627;28;20071;-76
2021/07/15 08:01:57;;;;;;;9.07;8.25;;;;;;;;;;5045030;28;20114;-72
2021/07/15 08:04:22;;;;;;;9.55;8.43;;;;;;;;;;5044465;28;20032;-75
2021/07/15 08:06:49;;;;;;;10.15;8.15;;;;;;;;;;5031501;28;20427;-76
2021/07/15 08:09:23;;;;;;;8.65;7.75;;;;;;;;;;5039504;28;20021;-72
2021/07/15 08:11:51;;;;;;;9.00;8.20;;;;;;;;;;5033246;28;20029;-74
2021/07/15 08:14:17;;;;;;;10.98;8.82;;;;;;;;;;5037001;28;20046;-72
2021/07/15 08:16:46;;;;;;;9.00;8.10;;;;;;;;;;5045402;28;20037;-73
2021/07/15 08:19:14;;;;;;;9.30;8.50;;;;;;;;;;5034121;28;20029;-72
2021/07/15 08:21:39;;;;;;;9.13;8.23;;;;;;;;;;5039760;28;20096;-74
2021/07/15 08:24:06;;;;;;;9.00;8.20;;;;;;;;;;5037911;28;20120;-72
2021/07/15 08:26:32;;;;;;;9.10;8.10;;;;;;;;;;5045549;28;20104;-72
2021/07/15 08:28:57;;;;;;;8.50;7.70;;;;;;;;;;5047720;28;20489;-72
2021/07/15 08:31:25;;;;;;;9.20;8.27;;;;;;;;;;5045781;28;20025;-73
2021/07/15 08:33:52;;;;;;;11.00;8.38;;;;;;;;;;5046601;28;20024;-74
2021/07/15 08:36:19;;;;;;;11.65;8.82;;;;;;;;;;5045610;28;20143;-72
2021/07/15 08:38:45;;;;;;;10.82;9.88;;;;;;;;;;5051310;28;20104;-72
2021/07/15 08:41:11;;;;;;;10.93;9.73;;;;;;;;;;5034916;28;20101;-72
2021/07/15 08:43:38;;;;;;;11.23;10.13;;;;;;;;;;5037033;28;20022;-73
2021/07/15 08:46:06;;;;;;;13.15;9.00;;;;;;;;;;5040637;28;20036;-72
2021/07/15 08:48:35;;;;;;;12.82;9.30;;;;;;;;;;5047460;28;20115;-73
2021/07/15 08:51:03;;;;;;;10.20;9.20;;;;;;;;;;5048117;28;20120;-78
2021/07/15 08:53:31;;;;;;;11.05;9.93;;;;;;;;;;5047306;28;20021;-72
2021/07/15 08:58:44;;;;;;;10.85;9.75;;;;;;;;;;5046252;28;20704;-73
2021/07/15 09:01:11;;;;;;;10.20;9.10;;;;;;;;;;5052157;28;20032;-74
2021/07/15 09:03:36;;;;;;;10.93;9.23;;;;;;;;;;5045133;28;20040;-73
2021/07/15 09:06:08;;;;;;;11.75;9.18;;;;;;;;;;5051670;28;20466;-74
2021/07/15 09:08:34;;;;;;;10.00;9.10;;;;;;;;;;5039638;28;20014;-72
2021/07/15 09:11:03;;;;;;;13.27;9.02;;;;;;;;;;5054047;28;20300;-72
2021/07/15 09:13:29;;;;;;;14.18;9.70;;;;;;;;;;5055036;28;20028;-73
2021/07/15 09:15:54;;;;;;;10.43;9.48;;;;;;;;;;5045849;28;20127;-73
2021/07/15 09:18:21;;;;;;;9.73;8.65;;;;;;;;;;5045077;28;20029;-74
2021/07/15 09:20:47;;;;;;;10.48;9.48;;;;;;;;;;5048881;28;20484;-74
2021/07/15 09:23:17;;;;;;;10.40;9.38;;;;;;;;;;5049074;28;20025;-74
2021/07/15 09:25:42;;;;;;;10.48;9.43;;;;;;;;;;5043657;28;20029;-72
2021/07/15 09:28:14;;;;;;;9.88;8.88;;;;;;;;;;5043870;28;20026;-74
2021/07/15 09:30:41;;;;;;;10.90;9.27;;;;;;;;;;5048578;28;20033;-74
2021/07/15 09:33:10;;;;;;;10.52;9.23;;;;;;;;;;5042525;28;20121;-71
2021/07/15 09:35:41;;;;;;;10.38;9.27;;;;;;;;;;5036027;28;20469;-72
2021/07/15 09:38:18;;;;;;;9.40;8.50;;;;;;;;;;5033884;28;20025;-74
2021/07/15 09:40:50;;;;;;;9.80;8.80;;;;;;;;;;5036599;28;20060;-73
2021/07/15 09:43:23;;;;;;;9.77;8.75;;;;;;;;;;5037999;28;20044;-73
2021/07/15 09:45:52;;;;;;;11.73;9.23;;;;;;;;;;5043175;28;20040;-72
2021/07/15 09:48:30;;;;;;;9.05;8.25;;;;;;;;;;5053048;28;20036;-74
2021/07/15 09:50:57;;;;;;;11.57;8.75;;;;;;;;;;5045822;28;20122;-72
2021/07/15 09:53:24;;;;;;;8.90;8.00;;;;;;;;;;5039355;28;20059;-73
2021/07/15 09:56:11;;;;;;;9.68;8.63;;;;;;;;;;5051707;28;20051;-72
2021/07/15 09:58:39;;;;;;;9.25;7.63;;;;;;;;;;5033847;28;20037;-71
2021/07/15 10:01:10;;;;;;;9.18;8.18;;;;;;;;;;5048889;28;20017;-73
2021/07/15 10:03:44;;;;;;;9.02;8.10;;;;;;;;;;5043014;28;20037;-75
2021/07/15 10:06:11;;;;;;;8.25;7.55;;;;;;;;;;5036029;28;20389;-73
2021/07/15 10:08:38;;;;;;;9.95;7.93;;;;;;;;;;5040894;28;20029;-74
2021/07/15 10:11:14;;;;;;;8.63;7.82;;;;;;;;;;5038944;28;20025;-70
2021/07/15 10:13:40;;;;;;;9.20;8.02;;;;;;;;;;5042216;28;20033;-73
2021/07/15 10:16:07;;;;;;;9.75;7.85;;;;;;;;;;5042791;28;20076;-73
2021/07/15 10:18:41;;;;;;;9.18;7.38;;;;;;;;;;5049068;28;20017;-73
2021/07/15 10:21:08;;;;;;;8.63;7.20;;;;;;;;;;5046589;28;20025;-73
2021/07/15 10:23:35;;;;;;;9.57;7.60;;;;;;;;;;5049699;28;20512;-75
2021/07/15 10:26:12;;;;;;;8.88;7.47;;;;;;;;;;5051878;28;20029;-73
2021/07/15 10:28:42;;;;;;;11.60;7.18;;;;;;;;;;5051863;28;20022;-71
2021/07/15 10:31:08;;;;;;;8.55;7.65;;;;;;;;;;5040573;28;20032;-71
2021/07/15 10:33:34;;;;;;;8.40;7.50;;;;;;;;;;5046871;28;20108;-76
2021/07/15 10:36:02;;;;;;;9.10;8.02;;;;;;;;;;5041837;28;20083;-76
2021/07/15 10:38:30;;;;;;;8.95;7.10;;;;;;;;;;5030995;28;20031;-74
2021/07/15 10:41:02;;;;;;;9.18;7.43;;;;;;;;;;5039539;28;20061;-71
2021/07/15 10:43:30;;;;;;;9.05;7.68;;;;;;;;;;5036863;28;20041;-71
2021/07/15 10:46:01;;;;;;;8.77;7.63;;;;;;;;;;5037110;28;20116;-69
2021/07/15 10:48:28;;;;;;;8.30;7.27;;;;;;;;;;5050470;28;20027;-71
2021/07/15 10:50:54;;;;;;;8.43;7.60;;;;;;;;;;5048486;28;20030;-73
2021/07/15 10:53:20;;;;;;;11.45;7.47;;;;;;;;;;5045845;28;20047;-74
2021/07/15 10:55:50;;;;;;;8.55;7.55;;;;;;;;;;5042951;28;20103;-71
2021/07/15 10:58:49;;;;;;;9.05;8.15;;;;;;;;;;5040061;28;20025;-73
2021/07/15 11:01:35;;;;;;;9.13;8.15;;;;;;;;;;5038025;28;20023;-73
2021/07/15 11:04:12;;;;;;;8.88;8.02;;;;;;;;;;5049127;28;20033;-73
2021/07/15 11:06:41;;;;;;;8.25;7.47;;;;;;;;;;5048897;28;20071;-74
2021/07/15 11:09:32;;;;;;;9.45;8.20;;;;;;;;;;5034541;28;20029;-73
2021/07/15 11:11:59;;;;;;;9.48;7.97;;;;;;;;;;5052672;28;20108;-71
2021/07/15 11:14:43;;;;;;;9.20;8.30;;;;;;;;;;5024908;28;20072;-70
2021/07/15 11:17:20;;;;;;;10.38;9.32;;;;;;;;;;5052983;28;20048;-71
2021/07/15 11:20:17;;;;;;;9.88;8.98;;;;;;;;;;5053828;28;20498;-70
2021/07/15 11:22:51;;;;;;;9.95;9.15;;;;;;;;;;5075209;28;20111;-70
2021/07/15 11:25:35;;;;;;;11.48;9.43;;;;;;;;;;5071975;28;20464;-70
2021/07/15 11:28:16;;;;;;;11.07;9.95;;;;;;;;;;5070485;28;20032;-70
2021/07/15 11:30:44;;;;;;;10.65;9.60;;;;;;;;;;5070403;28;20107;-70
2021/07/15 11:33:22;;;;;;;11.45;10.38;;;;;;;;;;5051090;28;20517;-70
2021/07/15 11:36:04;;;;;;;11.23;10.23;;;;;;;;;;5051720;28;20269;-71
2021/07/15 11:38:39;;;;;;;10.45;9.40;;;;;;;;;;5052233;28;20060;-72
2021/07/15 11:41:15;;;;;;;12.57;9.95;;;;;;;;;;5052104;28;20100;-71
2021/07/15 11:43:56;;;;;;;10.70;9.60;;;;;;;;;;5052249;28;20553;-72
2021/07/15 11:46:36;;;;;;;10.30;9.40;;;;;;;;;;5062231;28;20025;-72
2021/07/15 11:49:08;;;;;;;10.52;9.40;;;;;;;;;;5065374;28;20501;-72
2021/07/15 11:51:39;;;;;;;10.33;9.33;;;;;;;;;;5051481;28;20037;-70
2021/07/15 11:54:33;;;;;;;10.65;9.55;;;;;;;;;;5040591;28;20391;-72
2021/07/15 11:57:14;;;;;;;10.65;9.43;;;;;;;;;;5052770;28;20036;-71
2021/07/15 11:59:50;;;;;;;10.20;9.05;;;;;;;;;;5070360;28;20017;-71
2021/07/15 12:02:39;;;;;;;10.70;9.60;;;;;;;;;;5064616;28;20480;-71
2021/07/15 12:05:17;;;;;;;10.77;9.27;;;;;;;;;;5042501;28;20057;-73
2021/07/15 12:08:05;;;;;;;11.90;9.23;;;;;;;;;;5054871;28;20422;-72
2021/07/15 12:10:35;;;;;;;10.30;9.27;;;;;;;;;;5047751;28;20732;-73
2021/07/15 12:13:07;;;;;;;10.90;10.00;;;;;;;;;;5050085;28;20029;-72
2021/07/15 12:15:35;;;;;;;9.48;8.68;;;;;;;;;;5036535;28;20525;-72
2021/07/15 12:18:22;;;;;;;10.48;9.57;;;;;;;;;;5030157;28;20106;-72
2021/07/15 12:20:49;;;;;;;10.25;9.18;;;;;;;;;;5029992;28;20040;-72
2021/07/15 12:23:21;;;;;;;10.90;9.77;;;;;;;;;;5030237;28;20082;-72
2021/07/15 12:25:51;;;;;;;16.77;10.38;;;;;;;;;;5030290;28;20026;-72
2021/07/15 12:28:19;;;;;;;10.75;9.80;;;;;;;;;;5030173;28;20029;-73
2021/07/15 12:30:58;;;;;;;10.90;9.80;;;;;;;;;;5030825;28;20028;-72
2021/07/15 12:33:49;;;;;;;10.43;9.40;;;;;;;;;;5047676;28;20032;-72
2021/07/15 12:36:25;;;;;;;10.05;9.13;;;;;;;;;;5032394;28;20032;-72
2021/07/15 12:39:01;;;;;;;11.95;9.82;;;;;;;;;;5046790;28;20040;-72
2021/07/15 12:41:34;;;;;;;11.82;10.63;;;;;;;;;;5041977;28;20032;-72
2021/07/15 12:44:09;;;;;;;;;;;;;;;;;;5047792;28;20061;-73
2021/07/15 12:46:38;;;;;;;11.73;9.75;;;;;;;;;;5054541;28;19935;-75
2021/07/15 12:49:22;;;;;;;10.85;9.85;;;;;;;;;;5049942;28;20059;-75
2021/07/15 12:51:47;;;;;;;9.55;8.75;;;;;;;;;;5032102;28;20036;-73
2021/07/15 12:54:30;;;;;;;9.70;8.80;;;;;;;;;;5050488;28;20077;-73
2021/07/15 12:56:56;;;;;;;9.90;8.48;;;;;;;;;;5042931;28;20055;-72
2021/07/15 12:59:27;;;;;;;9.68;8.77;;;;;;;;;;5041138;28;20112;-73
2021/07/15 13:01:53;;;;;;;10.02;8.98;;;;;;;;;;5037996;28;20029;-72
2021/07/15 13:04:22;;;;;;;9.63;8.82;;;;;;;;;;5053229;28;20364;-72
2021/07/15 13:06:49;;;;;;;9.55;8.65;;;;;;;;;;5044832;28;20100;-73
2021/07/15 13:09:25;;;;;;;8.88;8.07;;;;;;;;;;5050259;28;20035;-73
2021/07/15 13:15:08;;;;;;;8.32;7.63;;;;;;;;;;5040304;28;20060;-73
2021/07/15 13:17:42;;;;;;;9.52;7.53;;;;;;;;;;5048361;28;20454;-71
2021/07/15 13:20:16;;;;;;;7.82;7.13;;;;;;;;;;5057160;28;20267;-73
2021/07/15 13:22:48;;;;;;;7.18;6.50;;;;;;;;;;5054621;28;20059;-74
2021/07/15 13:25:17;;;;;;;7.53;6.85;;;;;;;;;;5054342;28;20032;-71
2021/07/15 13:27:43;;;;;;;7.63;7.00;;;;;;;;;;5054242;28;20032;-74
2021/07/15 13:30:11;;;;;;;7.47;6.78;;;;;;;;;;5051773;28;20568;-70
2021/07/15 13:32:37;;;;;;;7.60;7.00;;;;;;;;;;5052276;28;20392;-71
2021/07/15 13:35:13;;;;;;;8.50;7.70;;;;;;;;;;5053308;28;20036;-73
2021/07/15 13:37:39;;;;;;;8.27;7.47;;;;;;;;;;5052654;28;20029;-74
2021/07/15 13:40:24;;;;;;;8.20;7.30;;;;;;;;;;5051666;28;20025;-73
2021/07/15 13:42:51;;;;;;;10.13;7.30;;;;;;;;;;5046958;28;20112;-74
2021/07/15 13:45:24;;;;;;;7.90;7.20;;;;;;;;;;5053393;28;20104;-74
2021/07/15 13:47:49;;;;;;;8.32;7.57;;;;;;;;;;5053261;28;20052;-76
2021/07/15 13:50:28;;;;;;;8.32;7.50;;;;;;;;;;5047820;28;20064;-73
2021/07/15 13:52:57;;;;;;;9.32;8.18;;;;;;;;;;5048508;28;20105;-74
2021/07/15 13:55:24;;;;;;;9.93;8.68;;;;;;;;;;5049590;28;20027;-73
2021/07/15 13:57:55;;;;;;;9.20;8.23;;;;;;;;;;5046944;28;20060;-73
2021/07/15 14:00:30;;;;;;;9.13;8.32;;;;;;;;;;5048849;28;20591;-73
2021/07/15 14:03:00;;;;;;;10.43;8.75;;;;;;;;;;5051921;28;20467;-73
2021/07/15 14:05:41;;;;;;;9.15;8.32;;;;;;;;;;5053599;28;20608;-75
2021/07/15 14:08:08;;;;;;;11.00;8.20;;;;;;;;;;5052891;28;20021;-73
2021/07/15 14:10:38;;;;;;;9.38;8.15;;;;;;;;;;5048843;28;20025;-73
2021/07/15 14:13:04;;;;;;;17.88;8.25;;;;;;;;;;5048104;28;20104;-73
2021/07/15 14:15:34;;;;;;;8.52;7.43;;;;;;;;;;5061715;28;20074;-72
2021/07/15 14:18:12;;;;;;;11.07;7.38;;;;;;;;;;5053946;28;20033;-76
2021/07/15 14:20:50;;;;;;;10.60;7.13;;;;;;;;;;5061318;28;20021;-73
2021/07/15 14:23:21;;;;;;;11.30;6.97;;;;;;;;;;5072824;28;20032;-74
2021/07/15 14:25:52;;;;;;;9.48;6.55;;;;;;;;;;5041148;28;20034;-73
2021/07/15 14:28:18;;;;;;;13.13;6.30;;;;;;;;;;5064845;28;20440;-75
2021/07/15 14:30:44;;;;;;;8.65;6.80;;;;;;;;;;5067976;28;20117;-72
2021/07/15 14:33:10;;;;;;;12.88;7.13;;;;;;;;;;5061784;28;20107;-74
2021/07/15 14:35:38;;;;;;;12.88;7.80;;;;;;;;;;5061336;28;20036;-75
2021/07/15 14:38:13;;;;;;;10.50;6.93;;;;;;;;;;5058955;28;20625;-74
2021/07/15 14:40:39;;;;;;;9.75;6.63;;;;;;;;;;5058744;28;20013;-73
2021/07/15 14:43:07;;;;;;;10.15;7.25;;;;;;;;;;5070258;28;20028;-71
2021/07/15 14:48:09;;;;;;;9.73;7.05;;;;;;;;;;5237697;22;20457;-72
2021/07/15 14:50:37;;;;;;;9.23;6.63;;;;;;;;;;5059872;28;20040;-71
2021/07/15 14:53:03;;;;;;;10.10;6.80;;;;;;;;;;5058713;28;20029;-73